Pascola, Missouri
Current Conditions -  °F | °C
As of 9:53 AM on Wednesday 28 Jan 2015 (Local Time) from KHKA Reporting Station
Clear Clear  
Wind Chill: 34°   Ceiling: Unl
Heat Index: 40°   Visibility: 10mi
Dew Point: 30°   Wind: 9mph
Humidity: 68%   Direction: 150°SSE
Pressure: 30.32"   Gusts: NA
Location:  36.27°N, 89.83°W
Report Text: KHKA 281553Z AUTO 15008KT 10SM CLR 04/M01 A3032 RMK AO2 SLP268 T00441011
Loading
Personal Weather Stations






























Interactive Weather Map New forecast layout! Learn more

10-Day Weather Forecast

Advertisements
Track Severe Weather on mobile